createdAt,value
2022-09-26T00:00:06.595Z,2.40
2022-09-26T00:03:13.683Z,2.03
2022-09-26T00:06:18.081Z,2.10
2022-09-26T00:09:20.712Z,2.20
2022-09-26T00:12:22.383Z,1.90
2022-09-26T00:15:24.149Z,2.40
2022-09-26T00:18:25.855Z,2.57
2022-09-26T00:21:30.253Z,2.23
2022-09-26T00:24:32.001Z,2.47
2022-09-26T00:27:33.914Z,2.43
2022-09-26T00:30:37.423Z,2.33
2022-09-26T00:33:39.248Z,2.40
2022-09-26T00:36:41.025Z,2.13
2022-09-26T00:39:43.857Z,2.57
2022-09-26T00:42:45.555Z,2.47
2022-09-26T00:45:47.475Z,2.47
2022-09-26T00:48:59.091Z,2.57
2022-09-26T00:52:09.573Z,2.60
2022-09-26T00:55:14.993Z,2.80
2022-09-26T00:58:24.504Z,2.40
2022-09-26T01:01:26.444Z,2.40
2022-09-26T01:04:30.061Z,2.77
2022-09-26T01:07:33.491Z,2.83
2022-09-26T01:10:36.524Z,2.50
2022-09-26T01:13:39.081Z,2.47
2022-09-26T01:16:44.555Z,2.53
2022-09-26T01:20:01.286Z,2.67
2022-09-26T01:23:22.925Z,2.43
2022-09-26T01:26:55.717Z,3.10
2022-09-26T01:30:21.593Z,2.37
2022-09-26T01:33:26.377Z,2.80
2022-09-26T01:36:37.987Z,2.50
2022-09-26T01:40:08.495Z,2.53
2022-09-26T01:43:12.900Z,2.93
2022-09-26T01:46:49.012Z,2.27
2022-09-26T01:50:00.700Z,2.97
2022-09-26T01:53:19.694Z,2.60
2022-09-26T01:56:28.025Z,2.97
2022-09-26T01:59:35.032Z,2.87
2022-09-26T02:02:43.155Z,2.60
2022-09-26T02:05:52.197Z,3.00
2022-09-26T02:08:59.094Z,3.17
2022-09-26T02:12:05.163Z,4.10
2022-09-26T02:15:11.655Z,2.90
2022-09-26T02:18:45.963Z,3.17
2022-09-26T02:21:48.618Z,3.27
2022-09-26T02:24:53.225Z,2.50
2022-09-26T02:27:56.329Z,2.47
2022-09-26T02:31:01.051Z,2.93
2022-09-26T02:34:04.526Z,3.07
2022-09-26T02:37:08.609Z,2.93
2022-09-26T02:40:10.335Z,3.10
2022-09-26T02:43:22.037Z,3.00
2022-09-26T02:46:39.747Z,3.50
2022-09-26T02:50:08.285Z,2.90
2022-09-26T02:53:28.620Z,3.07
2022-09-26T02:57:10.756Z,3.50
2022-09-26T03:00:48.341Z,3.50
2022-09-26T03:03:56.784Z,3.67
2022-09-26T03:07:04.441Z,3.30
2022-09-26T03:10:08.797Z,3.67
2022-09-26T03:13:14.245Z,3.20
2022-09-26T03:16:16.920Z,3.30
2022-09-26T03:19:31.701Z,3.83
2022-09-26T03:22:34.042Z,2.87
2022-09-26T03:25:35.924Z,2.90
2022-09-26T03:28:41.944Z,4.20
2022-09-26T03:31:45.021Z,3.47
2022-09-26T03:34:46.895Z,3.13
2022-09-26T03:37:49.440Z,4.00
2022-09-26T03:40:52.771Z,4.03
2022-09-26T03:44:13.323Z,3.70
2022-09-26T03:47:35.453Z,3.47
2022-09-26T03:50:38.457Z,4.00
2022-09-26T03:53:43.376Z,4.00
2022-09-26T03:56:48.518Z,3.50
2022-09-26T03:59:51.543Z,3.80
2022-09-26T04:02:54.332Z,3.83
2022-09-26T04:06:11.803Z,3.80
2022-09-26T04:09:17.531Z,3.67
2022-09-26T04:12:23.470Z,4.10
2022-09-26T04:15:26.566Z,3.17
2022-09-26T04:18:39.451Z,3.83
2022-09-26T04:21:42.171Z,3.20
2022-09-26T04:24:44.489Z,3.60
2022-09-26T04:27:48.188Z,3.40
2022-09-26T04:30:50.331Z,3.20
2022-09-26T04:33:57.061Z,3.33
2022-09-26T04:37:00.466Z,3.83
2022-09-26T04:40:04.166Z,4.10
2022-09-26T04:43:08.034Z,3.67
2022-09-26T04:46:21.087Z,4.13
2022-09-26T04:49:25.805Z,3.60
2022-09-26T04:52:27.777Z,3.43
2022-09-26T04:55:29.608Z,4.17
2022-09-26T04:58:31.498Z,3.47
2022-09-26T05:01:33.353Z,3.77
2022-09-26T05:04:35.949Z,3.60
2022-09-26T05:07:41.856Z,3.40
2022-09-26T05:10:53.441Z,3.03
2022-09-26T05:13:55.132Z,3.47
2022-09-26T05:17:01.965Z,3.10
2022-09-26T05:20:08.668Z,3.33
2022-09-26T05:23:44.545Z,3.90
2022-09-26T05:26:52.778Z,3.83
2022-09-26T05:29:56.340Z,3.37
2022-09-26T05:32:58.890Z,4.00
2022-09-26T05:36:00.673Z,3.37
2022-09-26T05:39:03.550Z,3.67
2022-09-26T05:42:05.866Z,3.93
2022-09-26T05:45:09.292Z,4.17
2022-09-26T05:48:11.121Z,3.80
2022-09-26T05:51:16.633Z,4.23
2022-09-26T05:54:19.553Z,4.30
2022-09-26T05:57:21.391Z,3.80
2022-09-26T06:00:28.873Z,3.60
2022-09-26T06:03:34.501Z,3.50
2022-09-26T06:06:59.224Z,2.80
2022-09-26T06:10:00.925Z,3.77
2022-09-26T06:13:15.242Z,2.87
2022-09-26T06:16:22.224Z,3.73
2022-09-26T06:19:24.089Z,3.40
2022-09-26T06:22:26.949Z,3.27
2022-09-26T06:25:29.212Z,3.13
2022-09-26T06:28:32.708Z,3.13
2022-09-26T06:31:34.474Z,3.23
2022-09-26T06:34:45.060Z,3.43
2022-09-26T06:38:16.810Z,3.77
2022-09-26T06:41:18.603Z,3.20
2022-09-26T06:44:20.351Z,2.73
2022-09-26T06:47:24.901Z,2.70
2022-09-26T06:50:56.959Z,2.67
2022-09-26T06:54:00.398Z,3.27
2022-09-26T06:57:02.418Z,2.93
2022-09-26T07:00:04.722Z,3.27
2022-09-26T07:03:26.502Z,2.73
2022-09-26T07:06:38.128Z,2.83
2022-09-26T07:09:41.441Z,2.83
2022-09-26T07:13:10.899Z,2.57
2022-09-26T07:16:13.133Z,2.10
2022-09-26T07:19:37.392Z,2.00
2022-09-26T07:22:45.371Z,2.10
2022-09-26T07:25:47.713Z,2.47
2022-09-26T07:28:54.311Z,2.00
2022-09-26T07:31:59.068Z,2.30
2022-09-26T07:35:17.153Z,1.93
2022-09-26T07:38:18.827Z,2.53
2022-09-26T07:41:22.913Z,1.90
2022-09-26T07:48:21.777Z,2.30
2022-09-26T07:51:49.694Z,1.87
2022-09-26T07:54:54.987Z,2.53
2022-09-26T07:57:59.540Z,1.77
2022-09-26T08:01:21.578Z,1.80
2022-09-26T08:04:58.949Z,2.10
2022-09-26T08:08:04.809Z,1.93
2022-09-26T08:11:32.875Z,2.17
2022-09-26T08:14:49.448Z,1.70
2022-09-26T08:17:55.285Z,2.03
2022-09-26T08:20:56.981Z,1.80
2022-09-26T08:23:58.821Z,2.20
2022-09-26T08:27:07.684Z,1.80
2022-09-26T08:30:13.476Z,1.70
2022-09-26T08:33:16.185Z,1.57
2022-09-26T08:36:17.922Z,1.90
2022-09-26T08:39:48.869Z,1.67
2022-09-26T08:43:18.697Z,1.93
2022-09-26T08:47:07.336Z,2.20
2022-09-26T08:50:49.197Z,2.03
2022-09-26T08:53:57.237Z,2.00
2022-09-26T08:57:18.283Z,1.87
2022-09-26T09:00:24.186Z,2.53
2022-09-26T09:04:05.808Z,2.40
2022-09-26T09:07:22.143Z,1.90
2022-09-26T09:10:50.485Z,2.00
2022-09-26T09:14:31.293Z,1.67
2022-09-26T09:18:13.611Z,1.47
2022-09-26T09:21:41.996Z,1.50
2022-09-26T09:25:03.371Z,1.97
2022-09-26T09:28:47.076Z,1.63
2022-09-26T09:31:51.342Z,1.63
2022-09-26T09:35:43.448Z,1.53
2022-09-26T09:39:03.022Z,1.87
2022-09-26T09:42:24.338Z,1.70
2022-09-26T09:45:43.816Z,1.57
2022-09-26T09:48:48.153Z,2.40
2022-09-26T09:52:11.636Z,4.53
2022-09-26T09:55:42.628Z,5.90
2022-09-26T09:59:16.609Z,1.90
2022-09-26T10:03:11.228Z,2.23
2022-09-26T10:06:45.135Z,2.00
2022-09-26T10:09:40.980Z,1.30
2022-09-26T10:13:01.573Z,1.70
2022-09-26T10:16:25.006Z,1.73
2022-09-26T10:19:43.339Z,1.80
2022-09-26T10:22:46.652Z,1.53
2022-09-26T10:26:03.434Z,1.97
2022-09-26T10:29:23.529Z,2.23
2022-09-26T10:32:26.627Z,2.27
2022-09-26T10:35:41.335Z,2.03
2022-09-26T10:39:11.924Z,1.90
2022-09-26T10:42:20.087Z,1.93
2022-09-26T10:45:29.217Z,2.33
2022-09-26T10:48:55.336Z,2.60
2022-09-26T10:52:09.119Z,2.00
2022-09-26T10:55:19.308Z,2.00
2022-09-26T10:58:27.579Z,2.43
2022-09-26T11:01:38.261Z,6.03
2022-09-26T11:05:04.534Z,3.87
2022-09-26T11:08:18.875Z,2.30
2022-09-26T11:11:42.063Z,1.77
2022-09-26T11:14:51.065Z,3.67
2022-09-26T11:17:55.272Z,2.60
2022-09-26T11:21:18.410Z,1.60
2022-09-26T11:24:54.787Z,1.97
2022-09-26T11:28:19.284Z,1.83
2022-09-26T11:31:43.014Z,1.70
2022-09-26T11:35:22.518Z,2.00
2022-09-26T11:38:49.618Z,1.90
2022-09-26T11:42:04.279Z,1.50
2022-09-26T11:45:37.739Z,1.50
2022-09-26T11:49:27.611Z,1.93
2022-09-26T11:53:20.200Z,0.93
2022-09-26T11:56:43.606Z,1.27
2022-09-26T12:00:06.063Z,2.10
2022-09-26T12:03:23.378Z,1.27
2022-09-26T12:06:33.541Z,1.40
2022-09-26T12:09:47.264Z,0.80
2022-09-26T12:13:12.023Z,1.27
2022-09-26T12:16:32.593Z,1.30
2022-09-26T12:19:55.844Z,1.30
2022-09-26T12:23:31.811Z,1.40
2022-09-26T12:26:39.678Z,1.50
2022-09-26T12:29:55.191Z,1.57
2022-09-26T12:33:29.109Z,1.70
2022-09-26T12:36:48.356Z,1.30
2022-09-26T12:40:10.214Z,1.17
2022-09-26T12:43:21.242Z,1.97
2022-09-26T12:46:22.979Z,1.27
2022-09-26T12:49:58.385Z,1.47
2022-09-26T12:53:25.051Z,1.33
2022-09-26T12:56:30.541Z,1.20
2022-09-26T12:59:52.354Z,0.87
2022-09-26T13:03:27.654Z,1.60
2022-09-26T13:07:02.400Z,1.10
2022-09-26T13:10:28.657Z,1.30
2022-09-26T13:13:46.077Z,1.23
2022-09-26T13:17:10.121Z,1.40
2022-09-26T13:20:34.856Z,1.27
2022-09-26T13:23:57.199Z,2.03
2022-09-26T13:27:23.856Z,1.10
2022-09-26T13:30:35.081Z,1.20
2022-09-26T13:33:56.589Z,1.83
2022-09-26T13:37:00.211Z,1.10
2022-09-26T13:40:21.079Z,1.40
2022-09-26T13:43:25.567Z,1.20
2022-09-26T13:46:42.102Z,1.53
2022-09-26T13:50:38.453Z,0.93
2022-09-26T13:54:05.036Z,1.60
2022-09-26T13:57:46.707Z,1.40
2022-09-26T14:00:52.967Z,1.20
2022-09-26T14:04:21.321Z,1.27
2022-09-26T14:08:04.233Z,1.37
2022-09-26T14:11:30.795Z,1.70
2022-09-26T14:14:44.462Z,1.57
2022-09-26T14:17:46.236Z,1.00
2022-09-26T14:20:57.019Z,1.30
2022-09-26T14:24:38.060Z,1.40
2022-09-26T14:27:41.442Z,1.57
2022-09-26T14:31:11.202Z,1.27
2022-09-26T14:34:45.856Z,1.37
2022-09-26T14:37:50.285Z,1.40
2022-09-26T14:40:57.850Z,1.87
2022-09-26T14:44:04.372Z,2.03
2022-09-26T14:47:14.534Z,2.43
2022-09-26T14:50:20.488Z,2.00
2022-09-26T14:53:35.343Z,1.87
2022-09-26T14:57:05.157Z,1.50
2022-09-26T15:00:40.429Z,1.57
2022-09-26T15:03:42.353Z,1.30
2022-09-26T15:06:47.376Z,1.40
2022-09-26T15:10:02.939Z,1.60
2022-09-26T15:13:28.420Z,1.67
2022-09-26T15:16:43.148Z,11.70
2022-09-26T15:19:51.877Z,3.37
2022-09-26T15:22:57.178Z,1.67
2022-09-26T15:26:05.253Z,2.70
2022-09-26T15:29:09.967Z,2.00
2022-09-26T15:32:19.775Z,2.77
2022-09-26T15:35:21.680Z,2.10
2022-09-26T15:38:24.762Z,3.20
2022-09-26T15:41:45.528Z,1.80
2022-09-26T15:44:53.371Z,2.43
2022-09-26T15:47:57.637Z,1.83
2022-09-26T15:51:15.495Z,2.63
2022-09-26T15:54:27.890Z,2.20
2022-09-26T15:57:29.838Z,1.97
2022-09-26T16:00:37.342Z,1.80
2022-09-26T16:03:40.730Z,1.73
2022-09-26T16:07:01.869Z,1.67
2022-09-26T16:10:06.580Z,1.50
2022-09-26T16:13:25.242Z,1.90
2022-09-26T16:16:31.845Z,2.50
2022-09-26T16:19:35.845Z,2.17
2022-09-26T16:22:39.128Z,1.60
2022-09-26T16:25:47.522Z,2.17
2022-09-26T16:28:52.851Z,1.70
2022-09-26T16:31:54.849Z,1.50
2022-09-26T16:35:15.430Z,1.10
2022-09-26T16:38:35.187Z,1.90
2022-09-26T16:45:04.418Z,1.57
2022-09-26T16:48:06.175Z,1.43
2022-09-26T16:51:30.697Z,2.07
2022-09-26T16:54:32.941Z,1.87
2022-09-26T16:57:40.494Z,1.57
2022-09-26T17:01:01.165Z,1.67
2022-09-26T17:04:04.833Z,1.67
2022-09-26T17:07:15.381Z,1.57
2022-09-26T17:10:19.308Z,1.90
2022-09-26T17:13:23.780Z,1.63
2022-09-26T17:16:25.972Z,1.87
2022-09-26T17:19:29.647Z,1.63
2022-09-26T17:22:31.293Z,2.00
2022-09-26T17:25:35.823Z,1.97
2022-09-26T17:28:42.448Z,2.57
2022-09-26T17:31:44.126Z,2.43
2022-09-26T17:34:46.233Z,2.10
2022-09-26T17:37:47.910Z,2.27
2022-09-26T17:40:49.649Z,2.57
2022-09-26T17:44:00.211Z,2.30
2022-09-26T17:47:02.210Z,1.50
2022-09-26T17:50:04.849Z,2.27
2022-09-26T17:53:09.985Z,2.60
2022-09-26T17:56:12.776Z,2.50
2022-09-26T17:59:23.607Z,2.23
2022-09-26T18:02:43.651Z,2.87
2022-09-26T18:05:46.195Z,2.53
2022-09-26T18:08:48.445Z,2.50
2022-09-26T18:12:00.718Z,2.80
2022-09-26T18:15:08.449Z,2.53
2022-09-26T18:18:17.637Z,2.37
2022-09-26T18:21:19.808Z,2.90
2022-09-26T18:24:26.654Z,3.03
2022-09-26T18:27:28.332Z,2.83
2022-09-26T18:30:30.276Z,2.70
2022-09-26T18:33:37.141Z,2.17
2022-09-26T18:36:39.656Z,2.17
2022-09-26T18:39:41.573Z,2.83
2022-09-26T18:42:47.203Z,3.10
2022-09-26T18:45:49.660Z,3.93
2022-09-26T18:48:58.151Z,3.47
2022-09-26T18:52:01.514Z,3.57
2022-09-26T18:55:28.438Z,3.27
2022-09-26T18:58:32.250Z,3.17
2022-09-26T19:01:39.849Z,3.43
2022-09-26T19:04:41.686Z,3.77
2022-09-26T19:07:44.759Z,3.73
2022-09-26T19:10:46.524Z,4.37
2022-09-26T19:13:50.424Z,4.80
2022-09-26T19:16:53.389Z,4.90
2022-09-26T19:19:55.036Z,5.33
2022-09-26T19:22:58.343Z,5.40
2022-09-26T19:26:00.271Z,5.63
2022-09-26T19:29:04.013Z,6.00
2022-09-26T19:32:06.842Z,5.67
2022-09-26T19:35:17.125Z,5.63
2022-09-26T19:38:23.019Z,6.53
2022-09-26T19:41:24.722Z,5.33
2022-09-26T19:44:26.401Z,4.87
2022-09-26T19:47:30.005Z,4.53
2022-09-26T19:50:35.018Z,5.03
2022-09-26T19:53:38.028Z,4.70
2022-09-26T19:56:39.685Z,5.10
2022-09-26T19:59:41.389Z,4.03
2022-09-26T20:02:43.160Z,3.67
2022-09-26T20:05:49.362Z,4.20
2022-09-26T20:08:55.376Z,2.77
2022-09-26T20:11:59.436Z,3.80
2022-09-26T20:15:01.127Z,3.80
2022-09-26T20:18:03.036Z,3.60
2022-09-26T20:21:04.782Z,3.63
2022-09-26T20:24:10.624Z,3.40
2022-09-26T20:27:19.873Z,3.40
2022-09-26T20:30:40.767Z,4.10
2022-09-26T20:33:42.520Z,4.27
2022-09-26T20:36:50.572Z,4.10
2022-09-26T20:39:52.463Z,4.10
2022-09-26T20:42:59.238Z,4.20
2022-09-26T20:46:06.395Z,4.10
2022-09-26T20:49:14.855Z,4.57
2022-09-26T20:52:25.537Z,4.13
2022-09-26T20:55:28.031Z,4.47
2022-09-26T20:58:29.698Z,3.90
2022-09-26T21:01:31.400Z,4.60
2022-09-26T21:04:33.146Z,4.03
2022-09-26T21:07:35.384Z,5.57
2022-09-26T21:10:37.060Z,4.70
2022-09-26T21:13:38.736Z,4.77
2022-09-26T21:16:51.378Z,4.67
2022-09-26T21:19:54.341Z,4.43
2022-09-26T21:23:15.036Z,4.50
2022-09-26T21:26:27.788Z,4.43
2022-09-26T21:29:29.655Z,4.17
2022-09-26T21:32:31.354Z,4.47
2022-09-26T21:35:33.062Z,4.70
2022-09-26T21:38:34.788Z,4.13
2022-09-26T21:41:37.097Z,4.03
2022-09-26T21:44:41.086Z,4.23
2022-09-26T21:47:43.289Z,4.10
2022-09-26T21:50:54.018Z,4.67
2022-09-26T21:54:06.923Z,4.70
2022-09-26T21:57:13.388Z,5.37
2022-09-26T22:00:15.761Z,4.93
2022-09-26T22:03:17.605Z,5.13
2022-09-26T22:06:19.275Z,5.10
2022-09-26T22:09:20.942Z,5.07
2022-09-26T22:12:23.264Z,5.53
2022-09-26T22:15:25.180Z,4.37
2022-09-26T22:18:26.839Z,4.13
2022-09-26T22:21:28.514Z,4.43
2022-09-26T22:24:30.280Z,4.70
2022-09-26T22:27:33.365Z,4.70
2022-09-26T22:30:39.327Z,4.63
2022-09-26T22:33:41.249Z,4.80
2022-09-26T22:36:43.076Z,4.27
2022-09-26T22:39:44.763Z,5.30
2022-09-26T22:42:46.421Z,5.50
2022-09-26T22:45:48.167Z,5.60
2022-09-26T22:48:49.983Z,5.53
2022-09-26T22:51:51.642Z,4.40
2022-09-26T22:54:53.360Z,4.23
2022-09-26T22:57:55.029Z,3.27
2022-09-26T23:01:01.203Z,2.93
2022-09-26T23:04:02.958Z,2.80
2022-09-26T23:07:04.611Z,2.90
2022-09-26T23:10:06.972Z,2.17
2022-09-26T23:13:08.624Z,2.00
2022-09-26T23:16:16.995Z,2.13
2022-09-26T23:19:18.801Z,1.83
2022-09-26T23:22:20.531Z,2.00
2022-09-26T23:25:22.209Z,1.67
2022-09-26T23:28:23.925Z,1.73
2022-09-26T23:31:27.491Z,1.30
2022-09-26T23:34:29.247Z,1.60
2022-09-26T23:37:32.420Z,1.37
2022-09-26T23:40:37.099Z,1.70
2022-09-26T23:43:39.748Z,1.00
2022-09-26T23:46:41.545Z,1.10
2022-09-26T23:49:43.261Z,1.00
2022-09-26T23:52:45.116Z,1.20
2022-09-26T23:55:46.846Z,1.17
2022-09-26T23:58:48.531Z,0.90
